Time;durP1;ratioP1;P1;durP2;ratioP2;P2;SDS_P1;SDS_P2;PMS_P1;PMS_P2;Temp;Humidity;BMP_temperature;BMP_pressure;BME280_temperature;BME280_humidity;BME280_pressure;Samples;Min_cycle;Max_cycle;Signal;HPM_P1;HPM_P2
2023/01/15 00:01:49;;;;;;;3.37;1.37;;;9.80;99.90;;;;;;4991205;28;20212;-67
2023/01/15 00:04:17;;;;;;;2.63;1.10;;;9.80;99.90;;;;;;4992743;28;20531;-67
2023/01/15 00:06:42;;;;;;;4.57;1.63;;;9.80;99.90;;;;;;4985125;28;20639;-68
2023/01/15 00:09:13;;;;;;;3.20;1.27;;;9.90;99.90;;;;;;4976070;28;20224;-67
2023/01/15 00:11:39;;;;;;;3.63;1.43;;;9.90;99.90;;;;;;4976722;28;20185;-67
2023/01/15 00:14:04;;;;;;;3.03;1.20;;;9.90;99.90;;;;;;4979583;28;20555;-67
2023/01/15 00:16:30;;;;;;;7.77;1.30;;;9.90;99.90;;;;;;4983591;28;20193;-67
2023/01/15 00:19:00;;;;;;;5.33;1.17;;;9.90;99.90;;;;;;4991355;28;20197;-67
2023/01/15 00:21:27;;;;;;;11.23;1.73;;;10.00;99.90;;;;;;4991512;28;20188;-68
2023/01/15 00:29:23;;;;;;;5.50;1.50;;;10.00;99.90;;;;;;4989703;28;20210;-66
2023/01/15 00:31:58;;;;;;;3.83;0.93;;;9.80;99.90;;;;;;4979422;28;20220;-69
2023/01/15 00:34:25;;;;;;;2.33;1.30;;;9.80;99.90;;;;;;4976986;28;20259;-66
2023/01/15 00:36:51;;;;;;;4.33;1.30;;;9.90;99.90;;;;;;4975721;28;20557;-69
2023/01/15 00:39:17;;;;;;;3.53;1.87;;;9.80;99.90;;;;;;4988037;28;20183;-66
2023/01/15 00:41:42;;;;;;;4.27;1.20;;;9.90;99.90;;;;;;4977662;28;20284;-66
2023/01/15 00:44:08;;;;;;;3.60;1.10;;;9.80;99.90;;;;;;4987233;28;20599;-67
2023/01/15 00:46:34;;;;;;;2.80;1.20;;;9.90;99.90;;;;;;4974290;28;20255;-68
2023/01/15 00:48:59;;;;;;;5.60;2.80;;;9.90;99.90;;;;;;4976013;28;20220;-69
2023/01/15 00:51:25;;;;;;;5.03;1.90;;;9.90;99.90;;;;;;4974865;28;20587;-66
2023/01/15 00:53:51;;;;;;;4.67;1.40;;;9.90;99.90;;;;;;4975868;28;20255;-66
2023/01/15 00:56:16;;;;;;;4.63;1.10;;;9.80;99.90;;;;;;4982540;28;20184;-67
2023/01/15 00:58:42;;;;;;;5.30;2.40;;;9.80;99.90;;;;;;4981791;28;20184;-66
2023/01/15 01:01:08;;;;;;;3.37;0.83;;;9.70;99.90;;;;;;4979445;28;20595;-66
2023/01/15 01:03:34;;;;;;;4.00;1.00;;;9.60;99.90;;;;;;4982412;28;20224;-67
2023/01/15 01:06:01;;;;;;;2.80;1.17;;;9.70;99.90;;;;;;4976419;28;20286;-66
2023/01/15 01:08:26;;;;;;;2.00;1.50;;;9.80;99.90;;;;;;4983406;28;20711;-67
2023/01/15 01:11:04;;;;;;;2.20;0.90;;;9.80;99.90;;;;;;4979828;28;20184;-69
2023/01/15 01:13:30;;;;;;;4.80;1.20;;;9.70;99.90;;;;;;4979915;28;20204;-69
2023/01/15 01:15:56;;;;;;;3.47;1.20;;;9.70;99.90;;;;;;4981704;28;20204;-69
2023/01/15 01:18:21;;;;;;;7.57;1.30;;;9.80;99.90;;;;;;4979887;28;20625;-69
2023/01/15 01:20:47;;;;;;;4.67;1.37;;;9.70;99.90;;;;;;4975631;28;20192;-69
2023/01/15 01:23:12;;;;;;;3.93;1.40;;;9.70;99.90;;;;;;4979953;28;20646;-67
2023/01/15 01:25:38;;;;;;;1.30;1.07;;;9.70;99.90;;;;;;4975648;28;20653;-67
2023/01/15 01:28:04;;;;;;;2.30;1.43;;;9.80;99.90;;;;;;4983482;28;20197;-66
2023/01/15 01:30:29;;;;;;;9.37;1.87;;;9.80;99.90;;;;;;4987565;28;20242;-66
2023/01/15 01:32:55;;;;;;;2.83;1.23;;;9.80;99.90;;;;;;4985002;28;20274;-67
2023/01/15 01:35:21;;;;;;;6.97;1.17;;;9.60;99.90;;;;;;4988549;28;20184;-67
2023/01/15 01:37:50;;;;;;;4.20;1.40;;;9.60;99.90;;;;;;4975068;28;20208;-67
2023/01/15 01:40:17;;;;;;;3.77;1.03;;;9.60;99.90;;;;;;4979273;28;20193;-67
2023/01/15 01:42:43;;;;;;;0.87;0.87;;;9.50;99.90;;;;;;4977810;28;20196;-66
2023/01/15 01:45:28;;;;;;;7.53;1.37;;;9.60;99.90;;;;;;4984212;28;20685;-67
2023/01/15 01:47:58;;;;;;;4.70;1.20;;;9.50;99.90;;;;;;4974822;28;20212;-66
2023/01/15 01:50:27;;;;;;;10.97;1.73;;;9.50;99.90;;;;;;4984223;28;20242;-67
2023/01/15 01:52:57;;;;;;;5.03;0.90;;;9.50;99.90;;;;;;4977780;28;20223;-67
2023/01/15 01:55:25;;;;;;;4.47;1.47;;;9.40;99.90;;;;;;4975320;28;20193;-67
2023/01/15 01:57:54;;;;;;;6.43;1.77;;;9.50;99.90;;;;;;4974876;28;20180;-67
2023/01/15 02:00:22;;;;;;;2.47;1.50;;;9.50;99.90;;;;;;4973704;28;20200;-66
2023/01/15 02:02:50;;;;;;;7.93;1.20;;;9.60;99.90;;;;;;4973392;28;20188;-66
2023/01/15 02:05:34;;;;;;;7.77;1.93;;;9.50;99.90;;;;;;4974944;28;20181;-67
2023/01/15 02:08:00;;;;;;;2.23;1.30;;;9.50;99.90;;;;;;4988871;28;20226;-67
2023/01/15 02:10:26;;;;;;;3.17;1.07;;;9.60;99.90;;;;;;4976109;28;20220;-66
2023/01/15 02:13:38;;;;;;;3.13;1.60;;;9.50;99.90;;;;;;4980500;28;20216;-66
2023/01/15 02:16:20;;;;;;;4.13;0.93;;;9.40;99.90;;;;;;4967705;28;20197;-69
2023/01/15 02:18:46;;;;;;;8.33;1.90;;;9.40;99.90;;;;;;4974986;28;20666;-69
2023/01/15 02:21:24;;;;;;;5.93;1.30;;;9.40;99.90;;;;;;4974589;28;20188;-69
2023/01/15 02:23:56;;;;;;;1.20;0.90;;;9.40;99.90;;;;;;4985939;28;20730;-70
2023/01/15 02:26:28;;;;;;;4.53;1.90;;;9.30;99.90;;;;;;4974323;28;20699;-69
2023/01/15 02:28:57;;;;;;;6.00;1.40;;;9.20;99.90;;;;;;4974993;28;20192;-69
2023/01/15 02:31:31;;;;;;;7.87;1.57;;;9.20;99.90;;;;;;4974620;28;20616;-69
2023/01/15 02:34:02;;;;;;;2.37;1.10;;;9.10;99.90;;;;;;4981340;28;20212;-69
2023/01/15 02:36:32;;;;;;;1.17;1.13;;;8.90;99.90;;;;;;4974707;28;20634;-69
2023/01/15 02:39:03;;;;;;;0.73;0.73;;;8.90;99.90;;;;;;4977117;28;20651;-69
2023/01/15 02:41:37;;;;;;;5.53;1.00;;;8.90;99.90;;;;;;4974428;28;20541;-69
2023/01/15 02:44:06;;;;;;;2.07;1.60;;;8.80;99.90;;;;;;4988133;28;20176;-68
2023/01/15 02:46:34;;;;;;;4.50;1.20;;;8.80;99.90;;;;;;4983615;28;20213;-69
2023/01/15 02:49:02;;;;;;;2.77;1.10;;;8.80;99.90;;;;;;4974349;28;20275;-69
2023/01/15 02:51:35;;;;;;;2.27;1.00;;;8.80;99.90;;;;;;4980095;28;20588;-69
2023/01/15 02:54:05;;;;;;;2.07;0.93;;;8.80;99.90;;;;;;4982482;28;20224;-69
2023/01/15 02:56:34;;;;;;;4.73;1.13;;;8.80;99.90;;;;;;4987056;28;20554;-69
2023/01/15 02:59:06;;;;;;;1.70;1.53;;;8.80;99.90;;;;;;4976219;28;20212;-69
2023/01/15 03:01:39;;;;;;;2.80;1.43;;;8.70;99.90;;;;;;4973493;28;20264;-66
2023/01/15 03:04:26;;;;;;;2.37;1.03;;;8.80;99.90;;;;;;4985209;28;20648;-67
2023/01/15 03:07:31;;;;;;;5.43;0.93;;;8.90;99.90;;;;;;4975606;28;20184;-68
2023/01/15 03:09:57;;;;;;;9.20;1.27;;;9.10;99.90;;;;;;4951192;29;20669;-69
2023/01/15 03:12:33;;;;;;;3.37;1.03;;;9.00;99.90;;;;;;4972426;28;20232;-69
2023/01/15 03:16:33;;;;;;;0.90;0.77;;;8.90;99.90;;;;;;4992887;28;20168;-68
2023/01/15 03:18:00;;;;;;;2.83;1.00;;;8.80;99.90;;;;;;4975778;28;20717;-68
2023/01/15 03:20:28;;;;;;;3.53;1.40;;;8.90;99.90;;;;;;4981767;28;20322;-68
2023/01/15 03:23:05;;;;;;;4.10;1.00;;;8.90;99.90;;;;;;4983813;28;20220;-68
2023/01/15 03:25:40;;;;;;;5.17;1.00;;;8.90;99.90;;;;;;4987255;28;20533;-68
2023/01/15 03:28:09;;;;;;;1.70;1.20;;;8.70;99.90;;;;;;4973446;28;20664;-68
2023/01/15 03:30:34;;;;;;;8.97;1.53;;;8.80;99.90;;;;;;4975924;28;20207;-68
2023/01/15 03:33:00;;;;;;;2.37;1.20;;;8.70;99.90;;;;;;4986675;28;20223;-68
2023/01/15 03:35:59;;;;;;;2.00;1.13;;;8.60;99.90;;;;;;4977777;28;20582;-68
2023/01/15 03:38:37;;;;;;;1.83;1.30;;;8.70;99.90;;;;;;4954853;28;20263;-68
2023/01/15 03:41:14;;;;;;;2.73;1.00;;;8.70;99.90;;;;;;4983619;28;20278;-68
2023/01/15 03:43:55;;;;;;;2.57;1.60;;;8.70;99.90;;;;;;4990781;28;20187;-68
2023/01/15 03:46:48;;;;;;;1.67;1.57;;;8.60;99.90;;;;;;4973566;28;20692;-68
2023/01/15 03:49:17;;;;;;;2.37;1.00;;;8.70;99.90;;;;;;4982876;28;20195;-68
2023/01/15 03:52:09;;;;;;;1.43;1.07;;;8.70;99.90;;;;;;4986047;28;20861;-68
2023/01/15 03:54:59;;;;;;;4.10;1.57;;;8.70;99.90;;;;;;4982125;28;20193;-68
2023/01/15 03:57:27;;;;;;;2.37;0.80;;;8.50;99.90;;;;;;4977778;28;20215;-68
2023/01/15 04:00:00;;;;;;;4.53;1.10;;;8.60;99.90;;;;;;4989760;28;20641;-68
2023/01/15 04:02:27;;;;;;;5.07;1.23;;;8.50;99.90;;;;;;4978344;28;20745;-68
2023/01/15 04:04:54;;;;;;;4.20;1.60;;;8.50;99.90;;;;;;4975434;28;20204;-68
2023/01/15 04:07:20;;;;;;;4.07;1.50;;;8.50;99.90;;;;;;4980733;28;20193;-68
2023/01/15 04:09:47;;;;;;;3.00;1.30;;;8.50;99.90;;;;;;4974193;28;20196;-68
2023/01/15 04:12:12;;;;;;;6.10;1.17;;;8.50;99.90;;;;;;4982069;28;20216;-68
2023/01/15 04:14:38;;;;;;;5.57;0.80;;;8.40;99.90;;;;;;4972276;28;20196;-68
2023/01/15 04:17:04;;;;;;;0.60;0.60;;;8.40;99.90;;;;;;4977489;28;20189;-68
2023/01/15 04:19:29;;;;;;;0.80;0.73;;;8.40;99.90;;;;;;4976454;28;20676;-68
2023/01/15 04:21:55;;;;;;;1.77;0.73;;;8.40;99.90;;;;;;4976773;28;20279;-68
2023/01/15 04:24:21;;;;;;;0.90;0.80;;;8.30;99.90;;;;;;4975153;28;20192;-68
2023/01/15 04:26:46;;;;;;;3.17;1.60;;;8.20;99.90;;;;;;4976397;28;20200;-69
2023/01/15 04:29:12;;;;;;;2.87;1.00;;;8.30;99.90;;;;;;4976960;28;20251;-68
2023/01/15 04:31:38;;;;;;;1.97;1.43;;;8.40;99.90;;;;;;4986286;28;20583;-68
2023/01/15 04:34:03;;;;;;;3.60;1.23;;;8.30;99.90;;;;;;4986249;28;20200;-68
2023/01/15 04:36:29;;;;;;;1.60;1.57;;;8.30;99.90;;;;;;4977295;28;20226;-68
2023/01/15 04:38:56;;;;;;;7.90;2.27;;;8.20;99.90;;;;;;4976427;28;20192;-68
2023/01/15 04:44:07;;;;;;;5.13;1.73;;;8.20;99.90;;;;;;4988859;28;20235;-68
2023/01/15 04:46:40;;;;;;;2.93;1.07;;;8.20;99.90;;;;;;4966502;28;20208;-68
2023/01/15 04:49:09;;;;;;;3.20;2.33;;;8.20;99.90;;;;;;4979899;28;20216;-68
2023/01/15 04:51:34;;;;;;;1.03;1.03;;;8.20;99.90;;;;;;4978601;28;20279;-69
2023/01/15 04:54:04;;;;;;;6.13;1.00;;;8.20;99.90;;;;;;4974654;28;20295;-68
2023/01/15 04:56:31;;;;;;;2.23;1.00;;;8.20;99.90;;;;;;4976558;28;20181;-68
2023/01/15 04:59:00;;;;;;;4.87;1.20;;;8.20;99.90;;;;;;4988867;28;20524;-68
2023/01/15 05:01:26;;;;;;;0.80;0.80;;;8.20;99.90;;;;;;4976124;28;20200;-68
2023/01/15 05:03:52;;;;;;;2.33;1.00;;;8.30;99.90;;;;;;4966759;28;20548;-69
2023/01/15 05:06:17;;;;;;;0.80;0.80;;;8.30;99.90;;;;;;4975852;28;20188;-68
2023/01/15 05:08:44;;;;;;;1.70;1.20;;;8.20;99.90;;;;;;4976265;28;20192;-68
2023/01/15 05:11:10;;;;;;;1.40;0.90;;;8.20;99.90;;;;;;4985000;28;20183;-68
2023/01/15 05:13:36;;;;;;;3.10;1.03;;;8.20;99.90;;;;;;4981835;28;20221;-68
2023/01/15 05:16:17;;;;;;;0.90;0.77;;;8.10;99.90;;;;;;4992537;28;20671;-69
2023/01/15 05:18:44;;;;;;;1.63;1.63;;;8.10;99.90;;;;;;4990890;28;20177;-68
2023/01/15 05:21:22;;;;;;;3.20;0.87;;;8.10;99.90;;;;;;4975127;28;20236;-68
2023/01/15 05:23:49;;;;;;;2.77;0.93;;;8.00;99.90;;;;;;4975289;28;20243;-68
2023/01/15 05:26:16;;;;;;;1.27;0.93;;;8.10;99.90;;;;;;4975311;28;20188;-68
2023/01/15 05:28:42;;;;;;;3.67;1.00;;;8.00;99.90;;;;;;4977477;28;20185;-69
2023/01/15 05:31:09;;;;;;;2.17;0.90;;;8.10;99.90;;;;;;4975304;28;20544;-68
2023/01/15 05:33:36;;;;;;;2.93;1.73;;;8.10;99.90;;;;;;4976835;28;20212;-68
2023/01/15 05:36:07;;;;;;;4.53;1.27;;;8.20;99.90;;;;;;4975595;28;20272;-69
2023/01/15 05:38:33;;;;;;;6.13;0.70;;;8.20;99.90;;;;;;4978600;28;20206;-68
2023/01/15 05:41:02;;;;;;;0.90;0.90;;;8.10;99.90;;;;;;4975272;28;20189;-68
2023/01/15 05:43:27;;;;;;;0.60;0.60;;;8.00;99.90;;;;;;4983205;28;20212;-68
2023/01/15 05:45:53;;;;;;;2.33;0.80;;;8.00;99.90;;;;;;4976687;28;20686;-68
2023/01/15 05:48:19;;;;;;;3.20;0.70;;;7.90;99.90;;;;;;4991124;28;20649;-68
2023/01/15 05:50:44;;;;;;;0.70;0.70;;;7.90;99.90;;;;;;4983755;28;20231;-68
2023/01/15 05:53:10;;;;;;;6.07;0.93;;;8.00;99.90;;;;;;4974126;28;20220;-68
2023/01/15 05:55:36;;;;;;;3.00;0.97;;;7.90;99.90;;;;;;4983276;28;20188;-68
2023/01/15 05:58:01;;;;;;;4.30;1.23;;;7.80;99.90;;;;;;4985235;28;20199;-68
2023/01/15 06:00:27;;;;;;;1.90;1.13;;;7.80;99.90;;;;;;4988741;28;20547;-69
2023/01/15 06:02:53;;;;;;;1.33;1.27;;;7.80;99.90;;;;;;4987441;28;20530;-68
2023/01/15 06:05:19;;;;;;;1.23;0.80;;;7.70;99.90;;;;;;4967610;28;20193;-68
2023/01/15 06:07:49;;;;;;;3.70;1.00;;;7.60;99.90;;;;;;4987239;28;20208;-68
2023/01/15 06:10:17;;;;;;;0.60;0.60;;;7.50;99.90;;;;;;4982416;28;20560;-69
2023/01/15 06:12:43;;;;;;;0.70;0.70;;;7.30;99.90;;;;;;4979576;28;20267;-68
2023/01/15 06:15:10;;;;;;;0.70;0.70;;;7.20;99.90;;;;;;4988585;28;20422;-68
2023/01/15 06:17:36;;;;;;;3.00;0.90;;;7.20;99.90;;;;;;4984235;28;20654;-69
2023/01/15 06:20:02;;;;;;;1.37;1.00;;;7.20;99.90;;;;;;4991009;28;20203;-68
2023/01/15 06:22:28;;;;;;;0.83;0.70;;;7.10;99.90;;;;;;4982257;28;20197;-68
2023/01/15 06:24:54;;;;;;;0.90;0.90;;;7.10;99.90;;;;;;4958712;28;20531;-68
2023/01/15 06:27:19;;;;;;;1.30;0.97;;;7.00;99.90;;;;;;4986448;28;20216;-68
2023/01/15 06:29:45;;;;;;;0.70;0.70;;;7.00;99.90;;;;;;4977377;28;20216;-69
2023/01/15 06:32:11;;;;;;;0.73;0.73;;;7.00;99.90;;;;;;4991879;28;20688;-69
2023/01/15 06:34:36;;;;;;;1.23;0.70;;;7.10;99.90;;;;;;4992520;28;20614;-69
2023/01/15 06:37:02;;;;;;;1.23;1.10;;;7.00;99.90;;;;;;4964199;28;20188;-68
2023/01/15 06:39:28;;;;;;;1.43;0.97;;;6.90;99.90;;;;;;4980086;28;20704;-68
2023/01/15 06:47:22;;;;;;;1.37;1.27;;;6.90;99.90;;;;;;4982236;28;20195;-68
2023/01/15 06:49:57;;;;;;;3.27;1.30;;;6.90;99.90;;;;;;4972808;28;20181;-68
2023/01/15 06:52:25;;;;;;;1.57;0.70;;;7.00;99.90;;;;;;4981734;28;20214;-66
2023/01/15 06:54:50;;;;;;;1.67;1.40;;;7.00;99.90;;;;;;4990666;28;20184;-67
2023/01/15 06:57:17;;;;;;;0.70;0.70;;;7.00;99.90;;;;;;4984562;28;20211;-69
2023/01/15 06:59:43;;;;;;;2.67;1.13;;;6.80;99.90;;;;;;4991141;28;20227;-67
2023/01/15 07:02:10;;;;;;;1.87;0.93;;;6.70;99.90;;;;;;4986636;28;20453;-68
2023/01/15 07:04:36;;;;;;;3.10;1.07;;;6.70;99.90;;;;;;4987946;28;20176;-67
2023/01/15 07:07:02;;;;;;;3.50;1.00;;;6.70;99.90;;;;;;4989411;28;20199;-67
2023/01/15 07:09:27;;;;;;;1.37;1.27;;;6.70;99.90;;;;;;4989045;28;20712;-69
2023/01/15 07:11:53;;;;;;;1.40;1.23;;;6.80;99.90;;;;;;4990183;28;20196;-69
2023/01/15 07:14:21;;;;;;;1.90;1.67;;;6.80;99.90;;;;;;4989572;28;20189;-68
2023/01/15 07:16:47;;;;;;;2.97;1.10;;;6.80;99.90;;;;;;4988508;28;20184;-67
2023/01/15 07:19:14;;;;;;;3.33;1.37;;;6.90;99.90;;;;;;4988342;28;20601;-67
2023/01/15 07:21:39;;;;;;;1.63;1.53;;;6.90;99.90;;;;;;4989250;28;20200;-69
2023/01/15 07:24:06;;;;;;;2.20;1.53;;;6.80;99.90;;;;;;4990411;28;20204;-67
2023/01/15 07:26:31;;;;;;;2.37;1.07;;;6.70;99.90;;;;;;4988299;28;20268;-69
2023/01/15 07:28:57;;;;;;;2.50;1.67;;;6.70;99.90;;;;;;4987864;28;20279;-67
2023/01/15 07:31:23;;;;;;;1.10;1.00;;;6.70;99.90;;;;;;4991304;28;20215;-67
2023/01/15 07:33:48;;;;;;;3.30;1.23;;;6.60;99.90;;;;;;4988622;28;20665;-68
2023/01/15 07:36:14;;;;;;;1.53;1.43;;;6.50;99.90;;;;;;4989308;28;20188;-68
2023/01/15 07:38:40;;;;;;;2.00;1.07;;;6.60;99.90;;;;;;4984629;28;20238;-68
2023/01/15 07:52:02;;;;;;;1.40;1.00;;;6.70;99.90;;;;;;4987586;28;20734;-67
2023/01/15 07:54:28;;;;;;;5.53;1.30;;;6.60;99.90;;;;;;4979372;28;20193;-66
2023/01/15 07:56:55;;;;;;;5.33;2.00;;;6.50;99.90;;;;;;4985653;28;20216;-67
2023/01/15 07:59:21;;;;;;;3.90;1.40;;;6.60;99.90;;;;;;4990474;28;20183;-66
2023/01/15 08:01:47;;;;;;;2.10;1.43;;;6.70;99.90;;;;;;4982674;28;20191;-66
2023/01/15 08:04:13;;;;;;;4.20;1.50;;;6.60;99.90;;;;;;4987925;28;20188;-66
2023/01/15 08:06:38;;;;;;;6.73;1.40;;;6.50;99.90;;;;;;4973180;28;20531;-66
2023/01/15 08:09:04;;;;;;;0.87;0.87;;;6.50;99.90;;;;;;4989820;28;20192;-67
2023/01/15 08:17:00;;;;;;;1.47;0.83;;;6.60;99.90;;;;;;4975982;28;20248;-68
2023/01/15 08:19:28;;;;;;;2.27;1.17;;;6.50;99.90;;;;;;4976193;28;20889;-68
2023/01/15 08:21:55;;;;;;;9.43;1.97;;;6.50;99.90;;;;;;4973498;28;20216;-68
2023/01/15 08:24:24;;;;;;;4.27;1.23;;;6.60;99.90;;;;;;4969958;28;20189;-68
2023/01/15 08:26:51;;;;;;;4.63;1.17;;;6.60;99.90;;;;;;4971173;28;20289;-68
2023/01/15 08:29:18;;;;;;;2.17;1.50;;;6.60;99.90;;;;;;4975912;28;20664;-68
2023/01/15 08:31:43;;;;;;;3.03;1.43;;;6.70;99.90;;;;;;4981606;28;20419;-68
2023/01/15 08:34:09;;;;;;;3.33;1.90;;;6.70;99.90;;;;;;4975481;28;20740;-67
2023/01/15 08:36:35;;;;;;;5.50;1.67;;;6.60;99.90;;;;;;4976578;28;20641;-67
2023/01/15 08:39:02;;;;;;;2.53;1.10;;;6.60;99.90;;;;;;4970444;28;20197;-67
2023/01/15 08:41:28;;;;;;;1.40;1.20;;;6.70;99.90;;;;;;4967746;28;20255;-66
2023/01/15 08:43:54;;;;;;;1.40;1.30;;;6.60;99.90;;;;;;4971311;28;20207;-68
2023/01/15 08:46:19;;;;;;;2.00;1.33;;;6.60;99.90;;;;;;4982910;28;20184;-66
2023/01/15 08:48:46;;;;;;;6.00;1.83;;;6.70;99.90;;;;;;4972068;28;20227;-67
2023/01/15 08:51:11;;;;;;;2.87;1.33;;;6.70;99.90;;;;;;4968768;28;20203;-67
2023/01/15 08:53:37;;;;;;;4.17;1.00;;;6.80;99.90;;;;;;4969648;28;20220;-67
2023/01/15 08:56:04;;;;;;;3.07;1.60;;;6.90;99.90;;;;;;4985041;28;20213;-68
2023/01/15 08:58:31;;;;;;;6.57;1.37;;;6.80;99.90;;;;;;4988892;28;20221;-68
2023/01/15 09:01:05;;;;;;;3.80;1.30;;;6.80;99.90;;;;;;4979706;28;20260;-68
2023/01/15 09:03:31;;;;;;;3.73;1.40;;;6.80;99.90;;;;;;4976101;28;20196;-69
2023/01/15 09:06:03;;;;;;;2.00;1.10;;;6.80;99.90;;;;;;4977187;28;20211;-70
2023/01/15 09:08:28;;;;;;;7.17;1.40;;;6.80;99.90;;;;;;4975703;28;20200;-70
2023/01/15 09:11:01;;;;;;;3.30;1.07;;;6.90;99.90;;;;;;4986724;28;20192;-69
2023/01/15 09:13:28;;;;;;;2.93;1.10;;;6.80;99.90;;;;;;4994413;28;20636;-69
2023/01/15 09:15:57;;;;;;;0.73;0.73;;;6.90;99.90;;;;;;4986300;28;20192;-69
2023/01/15 09:18:23;;;;;;;3.30;1.47;;;6.90;99.90;;;;;;4989822;28;20191;-70
2023/01/15 09:20:49;;;;;;;2.07;1.87;;;6.80;99.90;;;;;;4988183;28;20184;-69
2023/01/15 09:23:15;;;;;;;0.90;0.80;;;6.90;99.90;;;;;;4971248;28;20201;-67
2023/01/15 09:25:49;;;;;;;8.97;2.23;;;7.00;99.90;;;;;;4975332;28;20243;-69
2023/01/15 09:28:15;;;;;;;2.63;0.90;;;7.20;99.90;;;;;;4978562;28;20641;-69
2023/01/15 09:30:40;;;;;;;1.70;1.27;;;7.20;99.90;;;;;;4990680;28;20208;-68
2023/01/15 09:33:06;;;;;;;5.43;1.47;;;7.20;99.90;;;;;;4991854;28;20219;-69
2023/01/15 09:35:32;;;;;;;3.07;1.07;;;7.30;99.90;;;;;;4985461;28;20196;-69
2023/01/15 09:37:57;;;;;;;1.30;1.20;;;7.40;99.90;;;;;;4982456;28;20274;-69
2023/01/15 09:40:56;;;;;;;1.20;0.93;;;7.40;99.90;;;;;;4986159;28;20588;-69
2023/01/15 09:43:44;;;;;;;3.07;1.20;;;7.40;99.90;;;;;;4988965;28;20246;-69
2023/01/15 09:46:27;;;;;;;1.07;0.97;;;7.60;99.90;;;;;;4986827;28;20184;-68
2023/01/15 09:49:10;;;;;;;3.60;1.40;;;7.30;99.90;;;;;;4991124;28;20583;-69
2023/01/15 09:51:57;;;;;;;2.27;1.43;;;7.20;99.90;;;;;;4991637;28;20172;-68
2023/01/15 09:54:52;;;;;;;1.50;1.00;;;7.00;99.90;;;;;;4990039;28;20185;-69
2023/01/15 09:57:19;;;;;;;1.00;0.60;;;7.00;99.90;;;;;;4974656;28;20605;-68
2023/01/15 09:59:47;;;;;;;2.13;1.93;;;7.10;99.90;;;;;;4990166;28;20183;-70
2023/01/15 10:02:28;;;;;;;1.60;1.00;;;7.20;99.90;;;;;;4991571;28;20196;-69
2023/01/15 10:05:00;;;;;;;2.27;1.10;;;7.40;99.90;;;;;;4986438;28;20302;-69
2023/01/15 10:07:29;;;;;;;0.80;0.80;;;7.40;99.90;;;;;;4986992;28;20187;-70
2023/01/15 10:10:10;;;;;;;4.27;1.43;;;7.30;99.90;;;;;;4990324;28;20545;-70
2023/01/15 10:12:38;;;;;;;1.63;1.30;;;7.30;99.90;;;;;;4987702;28;20232;-67
2023/01/15 10:15:15;;;;;;;3.30;1.50;;;7.20;99.90;;;;;;4988653;28;20184;-67
2023/01/15 10:17:52;;;;;;;0.87;0.87;;;7.10;99.90;;;;;;4987236;28;20702;-68
2023/01/15 10:20:52;;;;;;;1.60;0.90;;;7.20;99.90;;;;;;4986540;28;20275;-68
2023/01/15 10:23:27;;;;;;;1.30;1.00;;;7.30;99.90;;;;;;4981166;28;20201;-68
2023/01/15 10:26:02;;;;;;;1.30;0.87;;;7.20;99.90;;;;;;4989004;28;20180;-68
2023/01/15 10:28:30;;;;;;;1.10;1.10;;;7.00;99.90;;;;;;4986429;28;20219;-67
2023/01/15 10:31:02;;;;;;;1.03;0.97;;;6.90;99.90;;;;;;4987834;28;20176;-67
2023/01/15 10:33:52;;;;;;;2.10;1.30;;;6.80;99.90;;;;;;4986121;28;20348;-67
2023/01/15 10:36:28;;;;;;;1.10;0.83;;;6.70;99.90;;;;;;4989000;28;20711;-68
2023/01/15 10:38:53;;;;;;;4.53;1.47;;;6.90;99.90;;;;;;4986656;28;20183;-68
2023/01/15 10:41:52;;;;;;;1.53;1.43;;;6.90;99.90;;;;;;4983027;28;20203;-68
2023/01/15 10:44:42;;;;;;;2.70;1.63;;;7.00;99.90;;;;;;4990409;28;20204;-68
2023/01/15 10:47:14;;;;;;;3.43;1.13;;;7.00;99.90;;;;;;4979103;28;20220;-68
2023/01/15 10:49:41;;;;;;;1.33;1.23;;;7.10;99.90;;;;;;4972437;28;20191;-68
2023/01/15 10:52:14;;;;;;;2.33;1.10;;;7.00;99.90;;;;;;4975518;28;20196;-69
2023/01/15 10:55:08;;;;;;;1.00;1.00;;;7.00;99.90;;;;;;4977347;28;20185;-69
2023/01/15 10:57:39;;;;;;;0.90;0.90;;;7.20;99.90;;;;;;4985536;28;20177;-68
2023/01/15 11:00:08;;;;;;;0.73;0.73;;;7.20;99.90;;;;;;4977184;28;20187;-68
2023/01/15 11:02:42;;;;;;;1.43;1.23;;;7.20;99.90;;;;;;4972395;28;20193;-68
2023/01/15 11:05:19;;;;;;;1.37;1.00;;;7.30;99.90;;;;;;4979322;28;20268;-69
2023/01/15 11:07:51;;;;;;;1.77;1.20;;;7.20;99.90;;;;;;4980623;28;20770;-67
2023/01/15 11:10:20;;;;;;;3.23;1.50;;;7.10;99.90;;;;;;4974442;28;20760;-67
2023/01/15 11:21:30;;;;;;;2.80;2.70;;;7.70;99.90;;;;;;4977431;28;20190;-67
2023/01/15 11:23:58;;;;;;;3.47;1.17;;;8.00;99.90;;;;;;4975209;28;20192;-67
2023/01/15 11:26:30;;;;;;;1.00;0.90;;;8.10;99.90;;;;;;4987210;28;20675;-67
2023/01/15 11:28:58;;;;;;;1.50;1.40;;;8.30;99.90;;;;;;4983556;28;20216;-67
2023/01/15 11:31:35;;;;;;;1.40;1.30;;;8.30;99.90;;;;;;4986025;28;20218;-67
2023/01/15 11:34:04;;;;;;;3.37;1.20;;;8.40;99.90;;;;;;4987230;28;20294;-67
2023/01/15 11:36:30;;;;;;;1.40;0.90;;;8.20;99.90;;;;;;4985304;28;20195;-66
2023/01/15 11:38:57;;;;;;;3.03;1.33;;;8.20;99.90;;;;;;4975614;28;20220;-66
2023/01/15 11:50:42;;;;;;;1.87;1.07;;;8.20;99.90;;;;;;4982546;28;20230;-67
2023/01/15 11:52:38;;;;;;;2.33;1.07;;;8.30;99.90;;;;;;4987614;28;20320;-67
2023/01/15 11:55:11;;;;;;;1.47;1.17;;;8.60;99.90;;;;;;4992591;28;20270;-67
2023/01/15 11:57:37;;;;;;;1.60;1.47;;;8.60;99.90;;;;;;4992157;28;20184;-67
2023/01/15 12:00:04;;;;;;;2.43;1.10;;;8.70;99.90;;;;;;4992436;28;20203;-67
2023/01/15 12:02:47;;;;;;;1.60;1.50;;;8.80;99.90;;;;;;4990516;28;20573;-67
2023/01/15 12:05:24;;;;;;;2.80;1.53;;;8.80;99.90;;;;;;4993921;28;20184;-67
2023/01/15 12:07:54;;;;;;;4.20;1.10;;;8.70;99.90;;;;;;4990744;28;20314;-67
2023/01/15 12:11:02;;;;;;;3.63;2.07;;;8.40;99.90;;;;;;4992336;28;20203;-67
2023/01/15 12:13:50;;;;;;;1.30;1.20;;;8.30;99.90;;;;;;4994242;28;20630;-66
2023/01/15 12:16:22;;;;;;;1.37;1.23;;;8.30;99.90;;;;;;4992250;28;20180;-67
2023/01/15 12:19:19;;;;;;;4.27;1.97;;;8.30;99.90;;;;;;4989581;28;20184;-67
2023/01/15 12:22:06;;;;;;;1.53;1.43;;;8.40;99.90;;;;;;4992746;28;20180;-67
2023/01/15 12:25:13;;;;;;;1.43;1.10;;;8.50;99.90;;;;;;4987385;28;20665;-67
2023/01/15 12:27:53;;;;;;;3.20;1.20;;;8.70;99.90;;;;;;4969065;28;20188;-67
2023/01/15 12:30:35;;;;;;;2.50;1.90;;;8.40;99.90;;;;;;4986886;28;20647;-67
2023/01/15 12:33:19;;;;;;;4.00;1.10;;;8.50;99.90;;;;;;4976226;28;20213;-68
2023/01/15 12:35:56;;;;;;;2.57;1.73;;;8.50;99.90;;;;;;4981462;28;20204;-66
2023/01/15 12:38:47;;;;;;;5.10;2.80;;;8.50;99.90;;;;;;4986774;28;20184;-66
2023/01/15 12:44:58;;;;;;;1.97;1.30;;;8.40;99.90;;;;;;4979707;28;20180;-66
2023/01/15 12:47:16;;;;;;;2.03;1.93;;;8.30;99.90;;;;;;4984399;28;20669;-66
2023/01/15 12:49:51;;;;;;;2.03;1.60;;;8.50;99.90;;;;;;4983064;28;20218;-66
2023/01/15 12:52:24;;;;;;;3.67;1.60;;;8.50;99.90;;;;;;4982536;28;20199;-67
2023/01/15 12:55:00;;;;;;;1.60;1.47;;;8.40;99.90;;;;;;4979803;28;20214;-66
2023/01/15 12:57:35;;;;;;;1.10;1.10;;;8.40;99.90;;;;;;4983058;28;20176;-66
2023/01/15 13:00:11;;;;;;;3.87;1.73;;;8.60;99.90;;;;;;4977208;28;20188;-67
2023/01/15 13:02:52;;;;;;;2.80;2.27;;;8.80;99.90;;;;;;4979488;28;20184;-66
2023/01/15 13:05:19;;;;;;;1.67;1.23;;;8.80;99.90;;;;;;4979438;28;20188;-66
2023/01/15 13:07:55;;;;;;;1.43;1.33;;;8.90;99.90;;;;;;4976363;28;20180;-66
2023/01/15 13:10:26;;;;;;;2.77;1.30;;;9.00;99.90;;;;;;4976037;28;20211;-66
2023/01/15 13:12:59;;;;;;;1.70;1.27;;;9.00;99.90;;;;;;4975176;28;20209;-66
2023/01/15 13:15:31;;;;;;;5.63;1.27;;;9.00;99.90;;;;;;4983533;28;20256;-66
2023/01/15 13:18:20;;;;;;;1.27;1.17;;;9.00;99.90;;;;;;4976711;28;20231;-66
2023/01/15 13:20:53;;;;;;;2.50;0.90;;;8.90;99.90;;;;;;4975934;28;20216;-67
2023/01/15 13:23:25;;;;;;;7.10;1.60;;;9.00;99.90;;;;;;4975753;28;20176;-66
2023/01/15 13:25:53;;;;;;;5.47;1.83;;;8.70;99.90;;;;;;4980568;28;20193;-66
2023/01/15 13:28:22;;;;;;;3.73;1.57;;;8.70;99.90;;;;;;4991956;28;20189;-66
2023/01/15 13:30:58;;;;;;;1.57;1.40;;;8.70;99.90;;;;;;4977215;28;20188;-67
2023/01/15 13:33:35;;;;;;;4.13;1.23;;;8.80;99.90;;;;;;4974916;28;20660;-66
2023/01/15 13:36:19;;;;;;;5.37;1.83;;;8.80;99.90;;;;;;4982893;28;20176;-66
2023/01/15 13:38:50;;;;;;;1.87;1.13;;;8.70;99.90;;;;;;4975322;28;20219;-66
2023/01/15 13:44:18;;;;;;;0.87;0.87;;;8.60;99.90;;;;;;4989856;28;20203;-66
2023/01/15 13:46:47;;;;;;;4.27;1.30;;;8.70;99.90;;;;;;4985992;28;20193;-66
2023/01/15 13:49:25;;;;;;;1.33;1.27;;;8.70;99.90;;;;;;4974820;28;20236;-66
2023/01/15 13:51:50;;;;;;;1.00;1.00;;;8.60;99.90;;;;;;4974070;28;20764;-66
2023/01/15 13:54:20;;;;;;;1.30;1.30;;;8.50;99.90;;;;;;4984192;28;20212;-68
2023/01/15 13:56:46;;;;;;;4.47;1.00;;;8.40;99.90;;;;;;4977534;28;20188;-69
2023/01/15 13:59:37;;;;;;;1.20;1.10;;;8.40;99.90;;;;;;4990975;28;20664;-68
2023/01/15 14:02:29;;;;;;;3.87;1.30;;;8.30;99.90;;;;;;4985692;28;20543;-70
2023/01/15 14:04:55;;;;;;;2.43;1.37;;;8.20;99.90;;;;;;4976327;28;20703;-69
2023/01/15 14:07:35;;;;;;;2.77;1.43;;;8.00;99.90;;;;;;4977524;28;20672;-67
2023/01/15 14:10:16;;;;;;;1.37;1.03;;;8.00;99.90;;;;;;4982027;28;20672;-67
2023/01/15 14:12:58;;;;;;;3.07;1.33;;;8.00;99.90;;;;;;4984441;28;20207;-64